createdAt,value
2018-06-13T00:01:01.709Z,19.10
2018-06-13T00:03:34.871Z,19.00
2018-06-13T00:06:09.592Z,19.00
2018-06-13T00:08:46.551Z,19.10
2018-06-13T00:11:21.300Z,19.30
2018-06-13T00:14:16.255Z,19.00
2018-06-13T00:16:56.960Z,18.70
2018-06-13T00:19:34.197Z,18.70
2018-06-13T00:22:09.746Z,18.80
2018-06-13T00:24:44.085Z,19.00
2018-06-13T00:27:19.553Z,19.10
2018-06-13T00:29:59.501Z,19.00
2018-06-13T00:32:35.608Z,19.10
2018-06-13T00:35:09.704Z,19.00
2018-06-13T00:37:44.315Z,19.00
2018-06-13T00:43:49.293Z,18.50
2018-06-13T00:46:25.775Z,18.50
2018-06-13T00:48:59.889Z,18.20
2018-06-13T00:51:33.770Z,18.20
2018-06-13T00:54:14.743Z,18.50
2018-06-13T00:56:52.616Z,18.70
2018-06-13T00:59:26.916Z,18.90
2018-06-13T01:02:00.198Z,19.10
2018-06-13T01:04:33.940Z,19.10
2018-06-13T01:07:10.350Z,19.10
2018-06-13T01:09:45.091Z,19.10
2018-06-13T01:12:18.482Z,19.00
2018-06-13T01:14:51.789Z,19.00
2018-06-13T01:17:29.317Z,18.90
2018-06-13T01:20:03.184Z,18.90
2018-06-13T01:22:37.130Z,18.60
2018-06-13T01:25:11.993Z,18.60
2018-06-13T01:27:47.394Z,18.60
2018-06-13T01:30:29.108Z,18.60
2018-06-13T01:33:05.295Z,18.40
2018-06-13T01:35:41.104Z,18.30
2018-06-13T01:38:27.954Z,18.30
2018-06-13T01:41:03.206Z,18.30
2018-06-13T01:46:22.821Z,18.30
2018-06-13T01:49:03.457Z,18.20
2018-06-13T01:51:49.836Z,18.30
2018-06-13T01:54:23.238Z,18.30
2018-06-13T02:02:13.689Z,18.10
2018-06-13T02:04:54.421Z,18.10
2018-06-13T02:07:31.139Z,18.00
2018-06-13T02:10:09.312Z,18.00
2018-06-13T02:15:22.810Z,17.90
2018-06-13T02:17:58.484Z,17.90
2018-06-13T02:20:41.380Z,17.70
2018-06-13T02:23:21.112Z,17.60
2018-06-13T02:53:59.994Z,17.00
2018-06-13T02:56:43.807Z,16.90
2018-06-13T02:59:18.739Z,17.00
2018-06-13T03:01:53.672Z,16.90
2018-06-13T03:07:07.136Z,16.70
2018-06-13T03:12:22.664Z,16.50
2018-06-13T03:20:52.946Z,16.30
2018-06-13T03:23:28.697Z,16.40
2018-06-13T03:26:04.306Z,16.40
2018-06-13T03:28:38.185Z,16.40
2018-06-13T03:31:12.234Z,16.30
2018-06-13T03:33:53.522Z,16.30
2018-06-13T03:36:26.511Z,16.20
2018-06-13T03:39:05.945Z,16.20
2018-06-13T03:41:38.968Z,16.20
2018-06-13T03:44:12.012Z,16.10
2018-06-13T03:46:45.128Z,16.20
2018-06-13T03:49:18.439Z,16.20
2018-06-13T03:51:51.598Z,16.20
2018-06-13T03:54:25.311Z,16.20
2018-06-13T03:56:59.758Z,16.20
2018-06-13T03:59:35.242Z,16.20
2018-06-13T04:02:08.566Z,16.20
2018-06-13T04:04:43.603Z,16.20
2018-06-13T04:07:16.693Z,16.10
2018-06-13T04:09:50.706Z,16.00
2018-06-13T04:12:23.930Z,15.90
2018-06-13T04:14:57.160Z,15.80
2018-06-13T04:17:31.168Z,15.70
2018-06-13T04:20:06.536Z,15.70
2018-06-13T04:22:40.919Z,15.70
2018-06-13T04:25:14.950Z,15.70
2018-06-13T04:27:52.623Z,15.70
2018-06-13T04:30:27.822Z,15.70
2018-06-13T04:33:02.396Z,15.60
2018-06-13T04:35:35.659Z,15.60
2018-06-13T04:38:08.864Z,15.70
2018-06-13T04:40:42.815Z,15.60
2018-06-13T04:43:16.070Z,15.60
2018-06-13T04:45:49.488Z,15.60
2018-06-13T04:48:23.656Z,15.50
2018-06-13T04:50:56.976Z,15.50
2018-06-13T04:53:29.902Z,15.50
2018-06-13T04:56:02.987Z,15.50
2018-06-13T04:58:37.066Z,15.50
2018-06-13T05:01:14.176Z,15.50
2018-06-13T05:03:47.537Z,15.50
2018-06-13T05:06:21.402Z,15.50
2018-06-13T05:08:54.565Z,15.50
2018-06-13T05:11:29.339Z,15.40
2018-06-13T05:14:02.485Z,15.40
2018-06-13T05:16:35.525Z,15.30
2018-06-13T05:19:08.672Z,15.30
2018-06-13T05:21:41.890Z,15.30
2018-06-13T05:24:14.971Z,15.40
2018-06-13T05:26:48.315Z,15.30
2018-06-13T05:29:21.350Z,15.30
2018-06-13T05:31:54.703Z,15.30
2018-06-13T05:34:28.103Z,15.30
2018-06-13T05:37:01.210Z,15.30
2018-06-13T05:39:36.232Z,15.20
2018-06-13T05:42:18.473Z,15.20
2018-06-13T05:44:51.801Z,15.10
2018-06-13T05:47:27.036Z,15.10
2018-06-13T05:50:04.263Z,15.10
2018-06-13T05:52:39.326Z,15.10
2018-06-13T05:55:12.979Z,15.10
2018-06-13T05:57:47.151Z,15.00
2018-06-13T06:00:20.576Z,15.00
2018-06-13T06:02:59.016Z,15.00
2018-06-13T06:05:35.796Z,15.00
2018-06-13T06:08:10.068Z,15.00
2018-06-13T06:10:48.930Z,15.10
2018-06-13T06:13:22.003Z,15.10
2018-06-13T06:15:57.213Z,15.10
2018-06-13T06:18:30.360Z,15.00
2018-06-13T06:21:03.490Z,15.00
2018-06-13T06:23:36.598Z,15.00
2018-06-13T06:26:09.733Z,15.00
2018-06-13T06:28:42.798Z,15.00
2018-06-13T06:31:16.774Z,14.90
2018-06-13T06:33:49.791Z,14.90
2018-06-13T06:36:22.680Z,14.90
2018-06-13T06:38:55.550Z,14.90
2018-06-13T06:41:28.806Z,14.90
2018-06-13T06:44:01.740Z,14.90
2018-06-13T06:46:36.046Z,14.80
2018-06-13T06:49:09.745Z,14.80
2018-06-13T06:51:42.659Z,14.80
2018-06-13T06:54:15.589Z,14.80
2018-06-13T06:56:48.678Z,14.80
2018-06-13T06:59:22.215Z,14.70
2018-06-13T07:01:56.206Z,14.70
2018-06-13T07:04:29.181Z,14.70
2018-06-13T07:07:02.154Z,14.70
2018-06-13T07:09:36.237Z,14.70
2018-06-13T07:12:09.120Z,14.70
2018-06-13T07:14:42.288Z,14.70
2018-06-13T07:17:15.929Z,14.60
2018-06-13T07:19:48.859Z,14.60
2018-06-13T07:22:21.724Z,14.60
2018-06-13T07:24:55.624Z,14.50
2018-06-13T07:27:28.675Z,14.50
2018-06-13T07:30:01.665Z,14.50
2018-06-13T07:32:34.556Z,14.40
2018-06-13T07:35:07.443Z,14.40
2018-06-13T07:37:40.385Z,14.30
2018-06-13T07:40:13.372Z,14.20
2018-06-13T07:42:46.332Z,14.00
2018-06-13T14:37:18.394Z,12.00
2018-06-13T14:39:51.463Z,12.00
2018-06-13T14:42:24.511Z,11.90
2018-06-13T14:44:57.645Z,11.90
2018-06-13T14:47:30.713Z,12.00
2018-06-13T14:50:03.682Z,12.20
2018-06-13T14:52:36.827Z,12.30
2018-06-13T14:55:10.093Z,12.30
2018-06-13T14:57:42.930Z,12.40
2018-06-13T15:00:15.886Z,12.50
2018-06-13T15:02:48.847Z,12.50
2018-06-13T15:05:21.789Z,12.40
2018-06-13T15:07:54.742Z,12.30
2018-06-13T15:10:27.781Z,12.40
2018-06-13T15:13:10.470Z,12.40
2018-06-13T15:15:44.066Z,12.50
2018-06-13T15:18:17.031Z,12.60
2018-06-13T15:20:49.913Z,12.60
2018-06-13T15:23:22.867Z,12.60
2018-06-13T15:25:55.753Z,12.50
2018-06-13T15:28:28.651Z,12.50
2018-06-13T15:31:01.630Z,12.60
2018-06-13T15:33:34.608Z,12.70
2018-06-13T15:36:07.547Z,12.90
2018-06-13T15:38:40.466Z,13.10
2018-06-13T15:41:13.331Z,13.30
2018-06-13T15:43:46.322Z,13.10
2018-06-13T15:46:19.187Z,13.30
2018-06-13T15:48:52.073Z,13.30
2018-06-13T15:51:24.870Z,13.20
2018-06-13T15:53:57.782Z,12.90
2018-06-13T15:56:30.831Z,13.00
2018-06-13T15:59:04.087Z,13.00
2018-06-13T16:01:36.937Z,13.20
2018-06-13T16:04:09.773Z,13.20
2018-06-13T16:06:42.720Z,13.30
2018-06-13T16:09:15.611Z,13.50
2018-06-13T16:11:48.537Z,13.40
2018-06-13T16:14:21.480Z,13.40
2018-06-13T16:16:54.488Z,13.60
2018-06-13T16:19:27.420Z,13.70
2018-06-13T16:22:00.350Z,13.90
2018-06-13T16:24:33.432Z,14.10
2018-06-13T16:27:06.360Z,14.50
2018-06-13T16:29:39.227Z,14.60
2018-06-13T16:32:12.047Z,15.00
2018-06-13T16:34:44.955Z,15.20
2018-06-13T16:37:17.991Z,15.40
2018-06-13T16:39:50.933Z,15.40
2018-06-13T16:42:25.842Z,15.40
2018-06-13T16:44:58.759Z,15.40
2018-06-13T16:47:32.280Z,15.40
2018-06-13T16:50:09.528Z,15.20
2018-06-13T16:52:55.784Z,14.90
2018-06-13T16:55:28.765Z,14.90
2018-06-13T16:58:01.681Z,15.00
2018-06-13T17:00:34.674Z,15.20
2018-06-13T17:03:07.679Z,15.40
2018-06-13T17:05:40.598Z,15.60
2018-06-13T17:08:13.562Z,15.60
2018-06-13T17:10:46.406Z,16.00
2018-06-13T17:13:19.411Z,16.00
2018-06-13T17:15:52.339Z,16.10
2018-06-13T17:18:25.250Z,16.00
2018-06-13T17:20:58.962Z,16.10
2018-06-13T17:23:31.856Z,16.00
2018-06-13T17:26:04.709Z,16.40
2018-06-13T17:28:37.715Z,16.30
2018-06-13T17:31:10.705Z,16.60
2018-06-13T17:33:43.630Z,16.90
2018-06-13T17:36:16.554Z,16.80
2018-06-13T17:38:49.540Z,16.60
2018-06-13T17:41:22.402Z,16.10
2018-06-13T17:43:55.464Z,15.90
2018-06-13T17:46:28.374Z,16.00
2018-06-13T17:49:01.264Z,16.00
2018-06-13T17:51:34.137Z,16.40
2018-06-13T17:54:07.090Z,16.70
2018-06-13T17:56:40.091Z,16.30
2018-06-13T17:59:12.993Z,16.60
2018-06-13T18:01:45.910Z,16.20
2018-06-13T18:04:18.866Z,15.80
2018-06-13T18:06:51.713Z,15.70
2018-06-13T18:09:24.525Z,16.00
2018-06-13T18:11:57.504Z,16.20
2018-06-13T18:14:30.349Z,16.10
2018-06-13T18:17:03.375Z,16.30
2018-06-13T18:19:36.239Z,16.50
2018-06-13T18:22:09.498Z,16.70
2018-06-13T18:24:42.430Z,16.90
2018-06-13T18:27:15.641Z,17.20
2018-06-13T18:29:48.983Z,17.10
2018-06-13T18:32:23.148Z,16.90
2018-06-13T18:34:56.229Z,17.00
2018-06-13T18:37:29.849Z,17.40
2018-06-13T18:40:03.323Z,17.30
2018-06-13T18:42:36.940Z,17.20
2018-06-13T18:45:10.424Z,16.90
2018-06-13T18:47:43.910Z,16.90
2018-06-13T18:50:17.351Z,17.00
2018-06-13T18:52:50.776Z,17.10
2018-06-13T18:55:27.839Z,17.30
2018-06-13T18:58:01.137Z,17.40
2018-06-13T19:00:34.414Z,17.10
2018-06-13T19:03:07.535Z,16.90
2018-06-13T19:05:43.687Z,16.80
2018-06-13T19:08:20.132Z,16.80
2018-06-13T19:10:53.216Z,17.10
2018-06-13T19:13:27.702Z,17.20
2018-06-13T19:16:02.849Z,17.30
2018-06-13T19:18:35.836Z,16.70
2018-06-13T19:21:09.163Z,16.60
2018-06-13T19:23:42.123Z,16.80
2018-06-13T19:26:15.115Z,16.80
2018-06-13T19:28:47.990Z,16.50
2018-06-13T19:31:21.021Z,16.70
2018-06-13T19:33:54.162Z,17.20
2018-06-13T19:36:27.041Z,17.50
2018-06-13T19:39:00.321Z,17.70
2018-06-13T19:41:33.157Z,17.70
2018-06-13T19:44:06.081Z,17.50
2018-06-13T19:46:39.027Z,17.50
2018-06-13T19:49:11.926Z,17.00
2018-06-13T19:51:44.838Z,16.90
2018-06-13T19:54:21.700Z,17.20
2018-06-13T19:56:54.602Z,17.60
2018-06-13T19:59:27.455Z,18.10
2018-06-13T20:02:00.290Z,18.00
2018-06-13T20:04:37.360Z,17.70
2018-06-13T20:07:10.412Z,17.20
2018-06-13T20:09:43.390Z,17.10
2018-06-13T20:12:42.108Z,17.00
2018-06-13T20:15:19.298Z,16.90
2018-06-13T20:17:56.301Z,17.30
2018-06-13T20:20:29.394Z,17.80
2018-06-13T20:23:02.381Z,18.00
2018-06-13T20:25:39.415Z,17.60
2018-06-13T20:28:16.265Z,18.00
2018-06-13T20:30:53.196Z,18.30
2018-06-13T20:33:26.179Z,18.50
2018-06-13T20:35:59.139Z,18.60
2018-06-13T20:38:32.400Z,18.60
2018-06-13T20:41:05.399Z,18.20
2018-06-13T20:43:39.295Z,18.40
2018-06-13T20:46:13.026Z,18.40
2018-06-13T20:48:50.110Z,18.40
2018-06-13T20:51:23.185Z,18.10
2018-06-13T20:53:56.236Z,18.00
2018-06-13T20:56:29.372Z,18.20
2018-06-13T20:59:02.352Z,18.10
2018-06-13T21:01:35.274Z,18.40
2018-06-13T21:04:08.148Z,18.70
2018-06-13T21:06:41.672Z,18.80
2018-06-13T21:09:15.222Z,19.20
2018-06-13T21:11:48.220Z,19.30
2018-06-13T21:14:21.105Z,19.30
2018-06-13T21:16:54.025Z,18.80
2018-06-13T21:19:26.931Z,18.30
2018-06-13T21:21:59.776Z,18.40
2018-06-13T21:24:33.163Z,18.60
2018-06-13T21:27:06.301Z,18.60
2018-06-13T21:29:39.221Z,17.70
2018-06-13T21:32:12.150Z,17.30
2018-06-13T21:34:45.216Z,17.20
2018-06-13T21:37:18.170Z,17.10
2018-06-13T21:39:51.215Z,17.10
2018-06-13T21:42:24.181Z,16.90
2018-06-13T21:44:57.167Z,16.80
2018-06-13T21:47:30.173Z,16.70
2018-06-13T21:50:03.032Z,16.60
2018-06-13T21:52:36.648Z,16.50
2018-06-13T21:55:09.612Z,16.40
2018-06-13T21:57:42.531Z,16.50
2018-06-13T22:00:15.640Z,16.40
2018-06-13T22:02:48.667Z,16.10
2018-06-13T22:05:21.591Z,15.80
2018-06-13T22:07:54.505Z,15.60
2018-06-13T22:10:27.495Z,15.50
2018-06-13T22:13:01.509Z,15.20
2018-06-13T22:15:34.413Z,15.10
2018-06-13T22:18:07.468Z,15.20
2018-06-13T22:20:40.454Z,15.40
2018-06-13T22:23:13.493Z,15.60
2018-06-13T22:25:46.965Z,15.50
2018-06-13T22:28:19.856Z,15.40
2018-06-13T22:30:52.976Z,15.00
2018-06-13T22:33:25.980Z,14.70
2018-06-13T22:35:59.734Z,14.40
2018-06-13T22:38:32.921Z,14.20
2018-06-13T22:41:05.752Z,14.00
2018-06-13T22:43:38.761Z,14.00
2018-06-13T22:46:11.750Z,14.00
2018-06-13T22:48:44.714Z,14.10
2018-06-13T22:51:18.270Z,14.20
2018-06-13T22:53:51.242Z,14.40
2018-06-13T22:56:24.258Z,14.60
2018-06-13T22:58:57.219Z,14.60
2018-06-13T23:01:30.179Z,14.70
2018-06-13T23:04:03.114Z,14.80
2018-06-13T23:06:36.046Z,15.00
2018-06-13T23:09:10.743Z,15.10
2018-06-13T23:11:43.737Z,15.20
2018-06-13T23:14:16.680Z,15.30
2018-06-13T23:16:49.658Z,15.30
2018-06-13T23:19:22.715Z,15.10
2018-06-13T23:21:55.608Z,15.10
2018-06-13T23:24:28.503Z,15.10
2018-06-13T23:27:01.391Z,15.30
2018-06-13T23:29:34.229Z,15.30
2018-06-13T23:32:07.225Z,15.30
2018-06-13T23:34:40.131Z,15.30
2018-06-13T23:37:12.971Z,15.30
2018-06-13T23:39:45.822Z,15.40
2018-06-13T23:42:19.100Z,15.50
2018-06-13T23:44:51.995Z,15.70
2018-06-13T23:47:24.943Z,15.80
2018-06-13T23:49:57.903Z,15.90
2018-06-13T23:52:30.923Z,16.00
2018-06-13T23:55:03.840Z,16.20
2018-06-13T23:57:36.788Z,16.10
